Time;durP1;ratioP1;P1;durP2;ratioP2;P2;SDS_P1;SDS_P2;PMS_P1;PMS_P2;Temp;Humidity;BMP_temperature;BMP_pressure;BME280_temperature;BME280_humidity;BME280_pressure;Samples;Min_cycle;Max_cycle;Signal;HPM_P1;HPM_P2
2022/08/27 00:00:38;;;;;;;;;;;;;;;24.05;72.92;96360.63;200044;292;189138;-58
2022/08/27 00:01:40;;;;;;;;;;;;;;;23.96;72.89;96340.09;199989;292;188438;-57
2022/08/27 00:02:41;;;;;;;;;;;;;;;24.01;72.85;96352.23;199982;292;190000;-57
2022/08/27 00:03:43;;;;;;;;;;;;;;;24.00;72.81;96346.48;200007;292;187000;-59
2022/08/27 00:04:45;;;;;;;;;;;;;;;24.04;72.78;96343.22;199962;292;187966;-59
2022/08/27 00:05:46;;;;;;;;;;;;;;;24.05;72.73;96342.05;200011;292;187829;-59
2022/08/27 00:06:47;;;;;;;;;;;;;;;23.98;72.71;96341.91;199999;292;189295;-57
2022/08/27 00:07:49;;;;;;;;;;;;;;;24.04;72.70;96347.38;199863;292;188948;-56
2022/08/27 00:08:50;;;;;;;;;;;;;;;24.00;72.68;96345.10;199954;292;188251;-56
2022/08/27 00:09:51;;;;;;;;;;;;;;;24.01;72.67;96343.13;199859;292;188182;-58
2022/08/27 00:10:53;;;;;;;;;;;;;;;24.00;72.65;96343.72;200022;292;189146;-59
2022/08/27 00:11:54;;;;;;;;;;;;;;;24.00;72.65;96345.10;199990;292;189700;-60
2022/08/27 00:12:55;;;;;;;;;;;;;;;24.01;72.66;96348.09;200050;292;188205;-57
2022/08/27 00:13:57;;;;;;;;;;;;;;;24.05;72.65;96357.28;200038;292;191898;-59
2022/08/27 00:14:59;;;;;;;;;;;;;;;24.00;72.63;96350.64;200042;292;188428;-58
2022/08/27 00:16:00;;;;;;;;;;;;;;;24.00;72.61;96356.17;199991;292;191475;-57
2022/08/27 00:17:01;;;;;;;;;;;;;;;24.03;72.59;96354.64;199978;292;186916;-58
2022/08/27 00:18:03;;;;;;;;;;;;;;;24.00;72.60;96360.33;199950;292;188166;-58
2022/08/27 00:19:04;;;;;;;;;;;;;;;23.98;72.61;96357.71;199513;292;189063;-58
2022/08/27 00:20:06;;;;;;;;;;;;;;;23.98;72.61;96364.05;200073;292;189845;-59
2022/08/27 00:21:07;;;;;;;;;;;;;;;23.99;72.59;96372.57;199802;292;188546;-58
2022/08/27 00:22:09;;;;;;;;;;;;;;;23.95;72.60;96366.17;200436;292;189221;-59
2022/08/27 00:23:10;;;;;;;;;;;;;;;23.95;72.63;96367.55;200735;291;189352;-55
2022/08/27 00:24:12;;;;;;;;;;;;;;;23.93;72.66;96372.66;200440;292;189432;-56
2022/08/27 00:25:13;;;;;;;;;;;;;;;23.93;72.64;96364.36;199444;293;188983;-59
2022/08/27 00:26:14;;;;;;;;;;;;;;;23.91;72.65;96365.28;200121;292;188246;-58
2022/08/27 00:27:16;;;;;;;;;;;;;;;23.88;72.67;96361.86;200719;291;187994;-59
2022/08/27 00:28:17;;;;;;;;;;;;;;;23.86;72.70;96365.59;200635;291;189089;-58
2022/08/27 00:29:18;;;;;;;;;;;;;;;23.84;72.70;96366.54;199899;292;189807;-56
2022/08/27 00:30:19;;;;;;;;;;;;;;;23.86;72.71;96376.66;199688;292;187025;-58
2022/08/27 00:31:21;;;;;;;;;;;;;;;23.86;72.72;96367.77;199967;292;189145;-57
2022/08/27 00:32:22;;;;;;;;;;;;;;;23.82;72.76;96365.53;200034;292;188510;-57
2022/08/27 00:33:23;;;;;;;;;;;;;;;23.84;72.79;96373.45;200001;292;189550;-58
2022/08/27 00:34:25;;;;;;;;;;;;;;;23.78;72.78;96363.83;200028;292;188831;-56
2022/08/27 00:35:26;;;;;;;;;;;;;;;23.79;72.81;96365.43;200032;292;190088;-57
2022/08/27 00:36:27;;;;;;;;;;;;;;;23.79;72.80;96371.77;200032;292;187937;-58
2022/08/27 00:37:29;;;;;;;;;;;;;;;23.75;72.83;96370.10;199994;292;188027;-59
2022/08/27 00:38:30;;;;;;;;;;;;;;;23.78;72.85;96377.66;200019;292;189035;-56
2022/08/27 00:39:31;;;;;;;;;;;;;;;23.74;72.87;96372.66;199951;292;188177;-58
2022/08/27 00:40:33;;;;;;;;;;;;;;;23.75;72.88;96382.55;200013;292;190405;-57
2022/08/27 00:41:34;;;;;;;;;;;;;;;23.73;72.90;96380.73;199968;292;189223;-59
2022/08/27 00:42:35;;;;;;;;;;;;;;;23.72;72.94;96384.09;199658;292;189468;-57
2022/08/27 00:43:37;;;;;;;;;;;;;;;23.69;72.93;96380.64;200001;292;188817;-59
2022/08/27 00:44:38;;;;;;;;;;;;;;;23.69;72.94;96378.45;200029;292;188487;-57
2022/08/27 00:45:39;;;;;;;;;;;;;;;23.65;72.97;96377.81;199951;292;188282;-58
2022/08/27 00:46:41;;;;;;;;;;;;;;;23.65;73.00;96383.34;199621;292;189904;-58
2022/08/27 00:47:42;;;;;;;;;;;;;;;23.66;73.00;96384.14;200007;292;188782;-57
2022/08/27 00:48:43;;;;;;;;;;;;;;;23.63;73.02;96376.58;199600;292;187206;-57
2022/08/27 00:49:45;;;;;;;;;;;;;;;23.62;73.05;96385.45;199907;292;189085;-58
2022/08/27 00:50:46;;;;;;;;;;;;;;;23.62;73.07;96386.84;200100;292;189977;-57
2022/08/27 00:51:49;;;;;;;;;;;;;;;23.63;73.11;96392.59;199961;292;189772;-58
2022/08/27 00:52:50;;;;;;;;;;;;;;;23.60;73.09;96385.58;200025;292;188532;-57
2022/08/27 00:53:52;;;;;;;;;;;;;;;23.60;73.11;96391.11;199898;292;188499;-57
2022/08/27 00:54:53;;;;;;;;;;;;;;;23.58;73.13;96390.09;200090;292;188209;-59
2022/08/27 00:55:54;;;;;;;;;;;;;;;23.55;73.13;96383.88;199955;292;189385;-59
2022/08/27 00:56:56;;;;;;;;;;;;;;;23.56;73.14;96389.63;200002;292;188477;-58
2022/08/27 00:57:57;;;;;;;;;;;;;;;23.56;73.16;96388.24;199982;292;188154;-58
2022/08/27 00:58:58;;;;;;;;;;;;;;;23.52;73.20;96394.30;199866;292;189273;-57
2022/08/27 01:00:00;;;;;;;;;;;;;;;23.52;73.24;96390.14;199866;292;189088;-58
2022/08/27 01:01:01;;;;;;;;;;;;;;;23.52;73.26;96390.14;199994;292;188436;-57
2022/08/27 01:02:18;;;;;;;;;;;;;;;23.53;73.27;96395.89;199407;293;189502;-59
2022/08/27 01:03:19;;;;;;;;;;;;;;;23.52;73.29;96393.49;199869;292;188529;-58
2022/08/27 01:04:20;;;;;;;;;;;;;;;23.44;73.30;96382.05;200572;291;190803;-56
2022/08/27 01:05:24;;;;;;;;;;;;;;;23.50;73.32;96390.26;199480;293;188753;-58
2022/08/27 01:06:25;;;;;;;;;;;;;;;23.47;73.31;96389.61;199950;292;158973;-57
2022/08/27 01:07:26;;;;;;;;;;;;;;;23.52;73.35;96393.49;199947;292;191239;-56
2022/08/27 01:08:28;;;;;;;;;;;;;;;23.50;73.34;96395.23;199821;292;188324;-59
2022/08/27 01:09:29;;;;;;;;;;;;;;;23.45;73.34;96385.83;199786;292;188563;-58
2022/08/27 01:10:31;;;;;;;;;;;;;;;23.48;73.36;96394.77;200730;291;188522;-56
2022/08/27 01:11:32;;;;;;;;;;;;;;;23.45;73.35;96389.17;200408;292;187145;-59
2022/08/27 01:12:34;;;;;;;;;;;;;;;23.47;73.37;96386.27;199392;293;186692;-59
2022/08/27 01:13:35;;;;;;;;;;;;;;;23.44;73.35;96385.61;199867;292;189142;-56
2022/08/27 01:14:36;;;;;;;;;;;;;;;23.48;73.40;96392.01;199829;292;189876;-57
2022/08/27 01:15:38;;;;;;;;;;;;;;;23.45;73.40;96389.17;199854;292;186014;-55
2022/08/27 01:16:39;;;;;;;;;;;;;;;23.46;73.44;96395.72;199817;292;190577;-57
2022/08/27 01:17:40;;;;;;;;;;;;;;;23.47;73.44;96395.14;200722;291;190530;-56
2022/08/27 01:18:42;;;;;;;;;;;;;;;23.43;73.44;96391.50;200119;291;187092;-54
2022/08/27 01:19:43;;;;;;;;;;;;;;;23.44;73.45;96393.91;200017;292;190472;-57
2022/08/27 01:20:44;;;;;;;;;;;;;;;23.44;73.46;96398.64;199982;292;188990;-57
2022/08/27 01:21:46;;;;;;;;;;;;;;;23.44;73.47;96399.44;199942;292;187186;-59
2022/08/27 01:22:47;;;;;;;;;;;;;;;23.45;73.48;96401.63;200041;292;189099;-57
2022/08/27 01:23:49;;;;;;;;;;;;;;;23.40;73.50;96397.19;200010;292;189149;-58
2022/08/27 01:24:50;;;;;;;;;;;;;;;23.43;73.50;96401.98;200018;292;190342;-60
2022/08/27 01:25:52;;;;;;;;;;;;;;;23.42;73.55;96398.20;200020;292;188528;-59
2022/08/27 01:26:53;;;;;;;;;;;;;;;23.42;73.57;96402.35;199989;292;188193;-56
2022/08/27 01:27:54;;;;;;;;;;;;;;;23.41;73.59;96399.37;199896;292;189296;-58
2022/08/27 01:28:56;;;;;;;;;;;;;;;23.38;73.60;96394.75;198982;292;189771;-58
2022/08/27 01:29:57;;;;;;;;;;;;;;;23.39;73.63;96402.47;199709;292;188205;-58
2022/08/27 01:30:58;;;;;;;;;;;;;;;23.42;73.64;96406.50;199984;292;189246;-56
2022/08/27 01:32:00;;;;;;;;;;;;;;;23.41;73.65;96404.31;199996;292;188428;-58
2022/08/27 01:33:01;;;;;;;;;;;;;;;23.34;73.64;96397.23;199803;292;190282;-57
2022/08/27 01:34:02;;;;;;;;;;;;;;;23.35;73.67;96397.45;199521;292;190072;-58
2022/08/27 01:35:04;;;;;;;;;;;;;;;23.33;73.68;96394.25;199861;292;188421;-57
2022/08/27 01:36:05;;;;;;;;;;;;;;;23.32;73.67;96391.27;200064;292;189889;-58
2022/08/27 01:37:07;;;;;;;;;;;;;;;23.33;73.68;96398.39;199445;293;188475;-60
2022/08/27 01:38:09;;;;;;;;;;;;;;;23.35;73.72;96400.22;199873;292;189116;-58
2022/08/27 01:39:10;;;;;;;;;;;;;;;23.32;73.73;96396.21;200506;291;189019;-57
2022/08/27 01:40:11;;;;;;;;;;;;;;;23.32;73.78;96400.36;200773;291;191254;-59
2022/08/27 01:41:13;;;;;;;;;;;;;;;23.30;73.77;96397.16;200763;291;188434;-59
2022/08/27 01:42:14;;;;;;;;;;;;;;;23.30;73.78;96390.83;200708;291;188052;-54
2022/08/27 01:43:16;;;;;;;;;;;;;;;23.28;73.82;96389.78;200780;291;189411;-57
2022/08/27 01:44:18;;;;;;;;;;;;;;;23.29;73.87;96387.84;199530;292;189117;-56
2022/08/27 01:45:19;;;;;;;;;;;;;;;23.29;73.89;96387.27;200739;291;188252;-57
2022/08/27 01:46:21;;;;;;;;;;;;;;;23.30;73.92;96395.77;200710;291;189037;-59
2022/08/27 01:47:22;;;;;;;;;;;;;;;23.28;73.91;96390.36;200743;291;188426;-58
2022/08/27 01:48:23;;;;;;;;;;;;;;;23.27;73.95;96391.52;200675;291;189511;-56
2022/08/27 01:49:25;;;;;;;;;;;;;;;23.30;73.98;96393.59;199930;292;190602;-58
2022/08/27 01:50:26;;;;;;;;;;;;;;;23.30;73.99;96395.77;199982;292;188548;-56
2022/08/27 01:51:27;;;;;;;;;;;;;;;23.28;74.03;96395.89;200016;292;188265;-57
2022/08/27 01:52:29;;;;;;;;;;;;;;;23.28;74.05;96394.51;200035;292;189018;-56
2022/08/27 01:53:30;;;;;;;;;;;;;;;23.27;74.06;96390.94;200020;292;188438;-57
2022/08/27 01:54:31;;;;;;;;;;;;;;;23.26;74.10;96391.31;200023;292;188540;-58
2022/08/27 01:55:33;;;;;;;;;;;;;;;23.24;74.13;96388.11;199998;292;189023;-58
2022/08/27 01:56:34;;;;;;;;;;;;;;;23.26;74.16;96384.39;200007;292;190020;-58
2022/08/27 01:57:36;;;;;;;;;;;;;;;23.26;74.18;96384.39;200024;292;189244;-58
2022/08/27 01:58:37;;;;;;;;;;;;;;;23.27;74.21;96392.91;199925;292;188218;-58
2022/08/27 01:59:38;;;;;;;;;;;;;;;23.27;74.23;96392.91;200005;292;187820;-58
2022/08/27 02:00:40;;;;;;;;;;;;;;;23.22;74.24;96379.38;200053;292;189086;-57
2022/08/27 02:01:41;;;;;;;;;;;;;;;23.25;74.27;96381.41;199993;292;192320;-58
2022/08/27 02:02:43;;;;;;;;;;;;;;;23.20;74.29;96375.59;199993;292;188556;-57
2022/08/27 02:03:46;;;;;;;;;;;;;;;23.24;74.30;96375.66;200024;292;188529;-59
2022/08/27 02:04:49;;;;;;;;;;;;;;;23.22;74.33;96376.03;200003;292;188359;-58
2022/08/27 02:05:50;;;;;;;;;;;;;;;23.21;74.34;96372.25;199849;292;160130;-55
2022/08/27 02:06:52;;;;;;;;;;;;;;;23.24;74.36;96381.19;200102;292;189144;-58
2022/08/27 02:07:53;;;;;;;;;;;;;;;23.24;74.39;96382.00;199437;293;187022;-59
2022/08/27 02:08:55;;;;;;;;;;;;;;;23.20;74.42;96374.21;199961;292;189927;-58
2022/08/27 02:09:56;;;;;;;;;;;;;;;23.21;74.42;96379.16;200751;291;190495;-57
2022/08/27 02:10:57;;;;;;;;;;;;;;;23.22;74.46;96376.61;200442;292;188347;-59
2022/08/27 02:12:03;;;;;;;;;;;;;;;23.20;74.49;96374.80;199458;293;187014;-59
2022/08/27 02:13:02;;;;;;;;;;;;;;;23.23;74.50;96383.16;200053;292;159859;-59
2022/08/27 02:14:03;;;;;;;;;;;;;;;23.22;74.51;96377.99;200683;291;188243;-59
2022/08/27 02:15:05;;;;;;;;;;;;;;;23.21;74.54;96381.34;199789;292;189234;-59
2022/08/27 02:16:06;;;;;;;;;;;;;;;23.22;74.61;96387.09;199783;292;190672;-59
2022/08/27 02:17:07;;;;;;;;;;;;;;;23.20;74.67;96385.27;200093;292;187104;-55
2022/08/27 02:18:09;;;;;;;;;;;;;;;23.19;74.74;96379.52;200654;291;186939;-57
2022/08/27 02:19:10;;;;;;;;;;;;;;;23.18;74.81;96380.69;200137;292;191729;-58
2022/08/27 02:20:12;;;;;;;;;;;;;;;23.21;74.86;96385.48;200164;291;189899;-55
2022/08/27 02:21:14;;;;;;;;;;;;;;;23.20;74.93;96382.50;199989;292;189282;-57
2022/08/27 02:22:15;;;;;;;;;;;;;;;23.16;74.93;96379.42;200018;292;189109;-59
2022/08/27 02:23:17;;;;;;;;;;;;;;;23.16;75.00;96384.37;199932;292;189929;-59
2022/08/27 02:24:18;;;;;;;;;;;;;;;23.17;75.17;96384.58;200004;292;188488;-59
2022/08/27 02:25:19;;;;;;;;;;;;;;;23.17;75.18;96385.16;199985;292;188025;-59
2022/08/27 02:26:21;;;;;;;;;;;;;;;23.14;75.16;96376.22;199903;292;189518;-59
2022/08/27 02:27:23;;;;;;;;;;;;;;;23.17;75.15;96381.02;199821;292;188994;-58
2022/08/27 02:28:25;;;;;;;;;;;;;;;23.16;75.09;96377.45;199777;292;188961;-59
2022/08/27 02:29:26;;;;;;;;;;;;;;;23.19;75.08;96380.91;199686;292;190348;-57
2022/08/27 02:30:27;;;;;;;;;;;;;;;23.20;75.05;96383.09;199920;292;190705;-59
2022/08/27 02:31:29;;;;;;;;;;;;;;;23.16;75.04;96374.69;199988;292;187091;-55
2022/08/27 02:32:31;;;;;;;;;;;;;;;23.22;75.04;96387.67;199986;292;188867;-58
2022/08/27 02:33:32;;;;;;;;;;;;;;;23.21;74.98;96380.54;199870;292;187172;-57
2022/08/27 02:34:33;;;;;;;;;;;;;;;23.25;75.00;96384.17;200103;292;189226;-57
2022/08/27 02:35:37;;;;;;;;;;;;;;;23.23;74.99;96379.59;199423;293;188903;-56
2022/08/27 02:36:38;;;;;;;;;;;;;;;23.22;74.93;96380.76;200134;292;156206;-59
2022/08/27 02:37:40;;;;;;;;;;;;;;;23.24;74.95;96384.77;200549;291;189516;-59
2022/08/27 02:38:41;;;;;;;;;;;;;;;23.25;74.93;96380.03;200043;292;188181;-59
2022/08/27 02:39:43;;;;;;;;;;;;;;;23.26;74.87;96377.48;199415;293;189146;-58
2022/08/27 02:40:44;;;;;;;;;;;;;;;23.22;74.84;96374.64;199865;292;190191;-59
2022/08/27 02:41:47;;;;;;;;;;;;;;;23.27;74.83;96376.31;199803;292;188176;-59
2022/08/27 02:42:48;;;;;;;;;;;;;;;23.26;74.82;96374.72;199798;292;187086;-59
2022/08/27 02:43:50;;;;;;;;;;;;;;;23.25;74.81;96374.50;200767;291;187543;-58
2022/08/27 02:44:51;;;;;;;;;;;;;;;23.27;74.83;96377.70;200388;291;189039;-57
2022/08/27 02:45:52;;;;;;;;;;;;;;;23.28;74.79;96373.77;200002;292;188420;-59
2022/08/27 02:46:53;;;;;;;;;;;;;;;23.28;74.77;96372.39;200002;292;188744;-55
2022/08/27 02:47:55;;;;;;;;;;;;;;;23.26;74.75;96374.72;199963;292;189148;-57
2022/08/27 02:48:56;;;;;;;;;;;;;;;23.32;74.73;96381.58;199796;292;189185;-59
2022/08/27 02:49:57;;;;;;;;;;;;;;;23.29;74.73;96374.82;199998;292;187159;-56
2022/08/27 02:50:59;;;;;;;;;;;;;;;23.31;74.71;96374.45;200004;292;189136;-59
2022/08/27 02:52:02;;;;;;;;;;;;;;;23.32;74.67;96371.91;200005;292;188334;-59
2022/08/27 02:53:03;;;;;;;;;;;;;;;23.30;74.67;96374.23;200025;292;189020;-58
2022/08/27 02:54:04;;;;;;;;;;;;;;;23.32;74.65;96374.67;199973;292;189062;-59
2022/08/27 02:55:06;;;;;;;;;;;;;;;23.31;74.68;96375.84;199994;292;189491;-59
2022/08/27 02:56:07;;;;;;;;;;;;;;;23.28;74.68;96368.24;200038;292;188900;-57
2022/08/27 02:57:08;;;;;;;;;;;;;;;23.31;74.70;96367.55;199904;292;188329;-58
2022/08/27 02:58:11;;;;;;;;;;;;;;;23.29;74.65;96364.34;199986;292;187024;-58
2022/08/27 02:59:13;;;;;;;;;;;;;;;23.33;74.66;96374.89;199821;292;188446;-57
2022/08/27 03:00:15;;;;;;;;;;;;;;;23.28;74.64;96372.39;199659;292;189779;-56
2022/08/27 03:01:16;;;;;;;;;;;;;;;23.32;74.65;96375.47;199978;292;186867;-59
2022/08/27 03:02:17;;;;;;;;;;;;;;;23.31;74.68;96375.25;200027;292;189193;-57
2022/08/27 03:03:19;;;;;;;;;;;;;;;23.31;74.65;96370.31;199991;292;188430;-59
2022/08/27 03:04:21;;;;;;;;;;;;;;;23.31;74.66;96376.64;200021;292;188354;-57
2022/08/27 03:05:23;;;;;;;;;;;;;;;23.28;74.64;96368.24;199984;292;189089;-59
2022/08/27 03:06:24;;;;;;;;;;;;;;;23.29;74.63;96371.25;199810;292;188392;-59
2022/08/27 03:07:26;;;;;;;;;;;;;;;23.32;74.65;96376.05;199998;292;188103;-58
2022/08/27 03:08:29;;;;;;;;;;;;;;;23.28;74.66;96375.16;200029;292;188451;-60
2022/08/27 03:09:31;;;;;;;;;;;;;;;23.28;74.67;96373.77;199473;292;189143;-56
2022/08/27 03:10:32;;;;;;;;;;;;;;;23.28;74.65;96369.62;200046;292;188472;-58
2022/08/27 03:11:33;;;;;;;;;;;;;;;23.29;74.64;96373.44;200049;292;188804;-56
2022/08/27 03:12:35;;;;;;;;;;;;;;;23.27;74.64;96372.17;199980;292;188991;-59
2022/08/27 03:13:36;;;;;;;;;;;;;;;23.25;74.65;96370.35;199997;292;189003;-59
2022/08/27 03:14:38;;;;;;;;;;;;;;;23.29;74.67;96378.17;200039;292;188382;-57
2022/08/27 03:15:39;;;;;;;;;;;;;;;23.29;74.67;96378.17;200001;292;188546;-58
2022/08/27 03:16:40;;;;;;;;;;;;;;;23.25;74.69;96372.53;200003;292;190975;-58
2022/08/27 03:19:01;;;;;;;;;;;;;;;23.23;74.66;96367.16;199963;292;151815;-59
2022/08/27 03:20:03;;;;;;;;;;;;;;;23.22;74.69;96366.94;199983;292;187047;-59
2022/08/27 03:21:06;;;;;;;;;;;;;;;23.25;74.71;96371.73;200000;292;188482;-59
2022/08/27 03:22:07;;;;;;;;;;;;;;;23.25;74.73;96375.88;199527;292;160669;-59
2022/08/27 03:23:09;;;;;;;;;;;;;;;23.23;74.69;96376.83;199873;292;187162;-58
2022/08/27 03:24:10;;;;;;;;;;;;;;;23.24;74.73;96382.58;200004;292;188985;-58
2022/08/27 03:25:12;;;;;;;;;;;;;;;23.22;74.75;96377.99;199695;292;191064;-57
2022/08/27 03:26:13;;;;;;;;;;;;;;;23.18;74.75;96371.01;199632;292;188926;-57
2022/08/27 03:27:14;;;;;;;;;;;;;;;23.19;74.75;96375.38;200042;292;189236;-59
2022/08/27 03:28:16;;;;;;;;;;;;;;;23.22;74.75;96389.05;199908;292;189008;-58
2022/08/27 03:29:17;;;;;;;;;;;;;;;23.21;74.76;96381.92;199726;292;189150;-58
2022/08/27 03:30:18;;;;;;;;;;;;;;;23.18;74.78;96375.16;200210;292;188685;-59
2022/08/27 03:31:25;;;;;;;;;;;;;;;23.16;74.81;96371.13;199445;293;187172;-59
2022/08/27 03:32:23;;;;;;;;;;;;;;;23.18;74.82;96379.30;200014;292;157266;-59
2022/08/27 03:33:25;;;;;;;;;;;;;;;23.18;74.85;96383.45;200098;292;187181;-59
2022/08/27 03:34:26;;;;;;;;;;;;;;;23.18;74.84;96384.00;199928;292;187060;-58
2022/08/27 03:35:27;;;;;;;;;;;;;;;23.18;74.84;96377.92;199794;292;189119;-58
2022/08/27 03:36:28;;;;;;;;;;;;;;;23.15;74.86;96381.96;199920;292;189232;-58
2022/08/27 03:37:30;;;;;;;;;;;;;;;23.16;74.88;96375.27;199905;292;187171;-57
2022/08/27 03:38:31;;;;;;;;;;;;;;;23.16;74.88;96382.19;199941;292;190255;-59
2022/08/27 03:39:33;;;;;;;;;;;;;;;23.16;74.87;96378.84;199363;293;189279;-57
2022/08/27 03:40:34;;;;;;;;;;;;;;;23.17;74.89;96383.20;199578;292;189724;-56
2022/08/27 03:41:35;;;;;;;;;;;;;;;23.14;74.90;96379.78;199825;292;187404;-59
2022/08/27 03:42:37;;;;;;;;;;;;;;;23.15;74.92;96380.58;199836;292;190760;-59
2022/08/27 03:43:39;;;;;;;;;;;;;;;23.15;74.91;96381.96;199991;292;188113;-59
2022/08/27 03:44:41;;;;;;;;;;;;;;;23.15;74.92;96383.34;200668;291;188571;-59
2022/08/27 03:45:42;;;;;;;;;;;;;;;23.16;74.91;96384.95;200471;292;190521;-60
2022/08/27 03:46:43;;;;;;;;;;;;;;;23.12;74.93;96380.73;199248;293;189162;-58
2022/08/27 03:47:45;;;;;;;;;;;;;;;23.12;74.94;96380.73;200086;292;189858;-58
2022/08/27 03:48:46;;;;;;;;;;;;;;;23.13;74.96;96381.53;200613;291;189541;-59
2022/08/27 03:49:47;;;;;;;;;;;;;;;23.12;74.95;96381.31;200445;292;189145;-58
2022/08/27 03:50:49;;;;;;;;;;;;;;;23.11;74.96;96376.94;199514;293;188474;-57
2022/08/27 03:51:50;;;;;;;;;;;;;;;23.13;75.00;96379.56;199926;292;188152;-59
2022/08/27 03:52:51;;;;;;;;;;;;;;;23.12;75.00;96381.31;200827;291;190427;-59
2022/08/27 03:53:53;;;;;;;;;;;;;;;23.13;75.01;96382.91;199997;291;188465;-58
2022/08/27 03:54:54;;;;;;;;;;;;;;;23.12;75.02;96385.45;199081;292;188432;-60
2022/08/27 03:55:55;;;;;;;;;;;;;;;23.13;75.00;96380.14;199775;292;189205;-59
2022/08/27 03:56:57;;;;;;;;;;;;;;;23.11;75.03;96381.09;199933;292;189585;-60
2022/08/27 03:57:58;;;;;;;;;;;;;;;23.12;75.04;96379.92;200455;292;189258;-58
2022/08/27 03:58:59;;;;;;;;;;;;;;;23.10;75.03;96380.29;200436;291;190005;-58
2022/08/27 04:00:01;;;;;;;;;;;;;;;23.15;75.02;96383.34;200411;292;189080;-60
2022/08/27 04:01:02;;;;;;;;;;;;;;;23.09;75.04;96372.58;199499;293;188119;-57
2022/08/27 04:02:03;;;;;;;;;;;;;;;23.15;75.05;96387.49;200103;292;189196;-58
2022/08/27 04:03:05;;;;;;;;;;;;;;;23.11;75.05;96386.62;200824;291;188384;-59
2022/08/27 04:04:06;;;;;;;;;;;;;;;23.13;75.08;96385.67;200629;291;189088;-59
2022/08/27 04:05:07;;;;;;;;;;;;;;;23.12;75.09;96384.88;200035;292;189112;-57
2022/08/27 04:06:09;;;;;;;;;;;;;;;23.14;75.09;96385.31;200010;292;189772;-59
2022/08/27 04:07:10;;;;;;;;;;;;;;;23.08;75.11;96382.03;199996;292;188086;-59
2022/08/27 04:08:12;;;;;;;;;;;;;;;23.11;75.11;96384.66;199949;292;190425;-58
2022/08/27 04:09:13;;;;;;;;;;;;;;;23.12;75.11;96384.07;199928;292;189082;-56
2022/08/27 04:10:14;;;;;;;;;;;;;;;23.09;75.12;96376.73;199973;292;189260;-59
2022/08/27 04:11:16;;;;;;;;;;;;;;;23.12;75.14;96381.31;199973;292;188035;-56
2022/08/27 04:12:17;;;;;;;;;;;;;;;23.11;75.17;96382.47;199975;292;188130;-57
2022/08/27 04:13:19;;;;;;;;;;;;;;;23.08;75.19;96377.89;200028;292;189193;-59
2022/08/27 04:14:20;;;;;;;;;;;;;;;23.09;75.20;96379.49;199708;292;191046;-58
2022/08/27 04:15:22;;;;;;;;;;;;;;;23.13;75.24;96384.30;200054;292;189036;-60
2022/08/27 04:16:24;;;;;;;;;;;;;;;23.08;75.22;96377.89;200038;292;188987;-58
2022/08/27 04:17:25;;;;;;;;;;;;;;;23.12;75.27;96389.60;199941;292;190414;-56
2022/08/27 04:18:27;;;;;;;;;;;;;;;23.09;75.27;96382.84;199957;292;189470;-58
2022/08/27 04:19:31;;;;;;;;;;;;;;;23.06;75.29;96376.04;199863;292;187366;-59
2022/08/27 04:20:31;;;;;;;;;;;;;;;23.08;75.31;96376.51;200196;292;156778;-59
2022/08/27 04:21:34;;;;;;;;;;;;;;;23.09;75.33;96381.45;200012;292;189247;-59
2022/08/27 04:22:35;;;;;;;;;;;;;;;23.08;75.34;96387.56;199981;292;189116;-57
2022/08/27 04:23:37;;;;;;;;;;;;;;;23.03;75.37;96379.53;200334;292;189312;-59
2022/08/27 04:24:39;;;;;;;;;;;;;;;23.07;75.42;96385.13;200127;292;188521;-58
2022/08/27 04:25:41;;;;;;;;;;;;;;;23.08;75.43;96386.18;199465;293;191344;-56
2022/08/27 04:26:44;;;;;;;;;;;;;;;23.06;75.42;96389.86;200111;292;188846;-58
2022/08/27 04:27:45;;;;;;;;;;;;;;;23.04;75.45;96383.09;200840;291;189854;-59
2022/08/27 04:28:47;;;;;;;;;;;;;;;23.08;75.48;96387.56;200284;292;190979;-58
2022/08/27 04:29:48;;;;;;;;;;;;;;;23.07;75.49;96380.98;199506;293;188458;-58
2022/08/27 04:30:49;;;;;;;;;;;;;;;23.09;75.50;96387.78;200060;292;188188;-59
2022/08/27 04:31:51;;;;;;;;;;;;;;;23.04;75.51;96377.56;200813;291;189856;-57
2022/08/27 04:32:52;;;;;;;;;;;;;;;23.04;75.54;96378.37;200410;292;188489;-59
2022/08/27 04:33:53;;;;;;;;;;;;;;;23.04;75.55;96377.56;199525;293;189686;-59
2022/08/27 04:34:55;;;;;;;;;;;;;;;23.06;75.52;96384.91;200079;292;189114;-58
2022/08/27 04:35:56;;;;;;;;;;;;;;;23.08;75.51;96386.77;200841;291;189850;-58
2022/08/27 04:36:57;;;;;;;;;;;;;;;23.05;75.54;96385.50;200689;291;188188;-60
2022/08/27 04:37:59;;;;;;;;;;;;;;;23.07;75.55;96392.05;199962;292;189082;-59
2022/08/27 04:39:01;;;;;;;;;;;;;;;23.04;75.55;96389.42;199849;292;191693;-59
2022/08/27 04:40:02;;;;;;;;;;;;;;;23.08;75.52;96394.47;199993;292;189147;-59
2022/08/27 04:41:20;;;;;;;;;;;;;;;23.06;75.55;96392.62;199980;292;188509;-58
2022/08/27 04:42:21;;;;;;;;;;;;;;;23.06;75.56;96385.71;199988;292;189560;-58
2022/08/27 04:43:22;;;;;;;;;;;;;;;23.07;75.58;96392.88;199997;292;189227;-59
2022/08/27 04:44:24;;;;;;;;;;;;;;;23.04;75.57;96386.66;200048;292;190018;-58
2022/08/27 04:45:25;;;;;;;;;;;;;;;23.06;75.56;96387.09;200023;292;189485;-59
2022/08/27 04:46:27;;;;;;;;;;;;;;;23.05;75.57;96388.26;200013;292;187153;-57
2022/08/27 04:47:29;;;;;;;;;;;;;;;23.03;75.57;96383.67;199971;292;188849;-58
2022/08/27 04:48:31;;;;;;;;;;;;;;;23.06;75.60;96389.06;199908;292;188770;-58
2022/08/27 04:49:32;;;;;;;;;;;;;;;23.06;75.60;96392.62;199895;292;188160;-58
2022/08/27 04:50:34;;;;;;;;;;;;;;;23.02;75.61;96380.69;199962;292;188204;-58
2022/08/27 04:51:35;;;;;;;;;;;;;;;23.05;75.64;96388.26;199953;292;189127;-59
2022/08/27 04:52:36;;;;;;;;;;;;;;;23.05;75.65;96389.64;199997;292;189089;-58
2022/08/27 04:53:38;;;;;;;;;;;;;;;23.06;75.65;96389.86;199885;292;188293;-59
2022/08/27 04:54:39;;;;;;;;;;;;;;;23.05;75.65;96380.55;200050;292;189128;-58
2022/08/27 04:55:40;;;;;;;;;;;;;;;23.05;75.67;96386.08;199371;293;188436;-56
2022/08/27 04:56:42;;;;;;;;;;;;;;;23.05;75.66;96390.22;199833;292;189134;-60
2022/08/27 04:57:43;;;;;;;;;;;;;;;23.04;75.69;96381.71;199839;292;188208;-58
2022/08/27 04:58:45;;;;;;;;;;;;;;;23.05;75.67;96384.70;199608;292;190918;-57
2022/08/27 04:59:46;;;;;;;;;;;;;;;23.03;75.70;96382.88;200678;291;190298;-58
2022/08/27 05:00:47;;;;;;;;;;;;;;;23.04;75.70;96379.75;200255;292;188989;-58
2022/08/27 05:01:49;;;;;;;;;;;;;;;23.05;75.70;96389.64;200377;292;187187;-59
2022/08/27 05:02:50;;;;;;;;;;;;;;;23.01;75.74;96384.62;199413;293;189107;-57
2022/08/27 05:03:51;;;;;;;;;;;;;;;23.06;75.73;96394.59;199831;292;190671;-59
2022/08/27 05:04:53;;;;;;;;;;;;;;;23.04;75.76;96389.42;200740;291;187118;-59
2022/08/27 05:05:54;;;;;;;;;;;;;;;23.07;75.75;96387.90;200474;291;190724;-60
2022/08/27 05:06:55;;;;;;;;;;;;;;;23.02;75.76;96386.22;200408;291;189100;-58
2022/08/27 05:07:57;;;;;;;;;;;;;;;23.05;75.77;96388.84;199982;292;191633;-59
2022/08/27 05:08:58;;;;;;;;;;;;;;;23.04;75.79;96386.66;199820;292;189784;-59
2022/08/27 05:10:00;;;;;;;;;;;;;;;23.04;75.79;96386.66;199894;292;189003;-59
2022/08/27 05:11:01;;;;;;;;;;;;;;;23.07;75.80;96389.28;199994;292;190610;-59
2022/08/27 05:12:02;;;;;;;;;;;;;;;23.04;75.79;96389.42;200009;292;189335;-59
2022/08/27 05:13:04;;;;;;;;;;;;;;;23.00;75.79;96377.49;200011;292;187806;-59
2022/08/27 05:14:05;;;;;;;;;;;;;;;23.02;75.80;96386.80;199952;292;189365;-59
2022/08/27 05:15:06;;;;;;;;;;;;;;;23.05;75.84;96392.41;199996;292;189911;-58
2022/08/27 05:16:08;;;;;;;;;;;;;;;23.00;75.80;96389.13;200001;292;187460;-59
2022/08/27 05:17:09;;;;;;;;;;;;;;;23.05;75.83;96393.78;199967;292;189203;-58